createdAt,value
2022-08-27T00:01:48.874Z,22.08
2022-08-27T00:04:16.293Z,20.73
2022-08-27T00:06:43.838Z,12.27
2022-08-27T00:09:14.087Z,19.83
2022-08-27T00:11:41.129Z,15.93
2022-08-27T00:14:09.112Z,10.57
2022-08-27T00:16:36.200Z,15.38
2022-08-27T00:19:04.306Z,13.52
2022-08-27T00:21:33.071Z,37.28
2022-08-27T00:24:01.161Z,48.50
2022-08-27T00:26:29.077Z,45.72
2022-08-27T00:28:57.098Z,62.67
2022-08-27T00:31:27.127Z,75.55
2022-08-27T00:33:55.671Z,55.28
2022-08-27T00:36:24.021Z,41.22
2022-08-27T00:38:53.202Z,47.72
2022-08-27T00:41:21.963Z,52.00
2022-08-27T00:43:58.050Z,41.50
2022-08-27T00:46:58.648Z,40.47
2022-08-27T00:49:43.473Z,18.30
2022-08-27T00:52:41.325Z,17.20
2022-08-27T00:55:24.319Z,18.85
2022-08-27T00:58:26.132Z,36.28
2022-08-27T01:00:54.709Z,15.32
2022-08-27T01:03:22.564Z,19.33
2022-08-27T01:05:50.808Z,12.55
2022-08-27T01:08:29.309Z,23.52
2022-08-27T01:10:58.659Z,18.13
2022-08-27T01:13:54.406Z,17.58
2022-08-27T01:16:26.818Z,27.63
2022-08-27T01:18:56.204Z,23.75
2022-08-27T01:21:55.682Z,17.08
2022-08-27T01:24:37.433Z,12.82
2022-08-27T01:27:13.551Z,18.73
2022-08-27T01:29:42.800Z,28.13
2022-08-27T01:32:32.032Z,29.92
2022-08-27T01:35:01.707Z,44.75
2022-08-27T01:37:29.602Z,50.65
2022-08-27T01:39:59.311Z,56.25
2022-08-27T01:42:41.046Z,55.17
2022-08-27T01:45:15.092Z,25.33
2022-08-27T01:47:42.959Z,16.58
2022-08-27T01:50:19.227Z,25.75
2022-08-27T01:52:46.835Z,28.05
2022-08-27T01:55:19.483Z,43.95
2022-08-27T01:57:46.994Z,54.72
2022-08-27T02:00:28.592Z,52.08
2022-08-27T02:02:58.353Z,52.17
2022-08-27T02:05:28.319Z,55.17
2022-08-27T02:07:56.286Z,63.47
2022-08-27T02:10:30.708Z,66.68
2022-08-27T02:12:58.141Z,66.40
2022-08-27T02:15:26.427Z,66.05
2022-08-27T02:17:54.087Z,68.47
2022-08-27T02:20:23.045Z,54.33
2022-08-27T02:22:54.028Z,63.28
2022-08-27T02:25:21.741Z,58.97
2022-08-27T02:27:50.647Z,45.83
2022-08-27T02:30:24.402Z,56.97
2022-08-27T02:32:53.241Z,62.42
2022-08-27T02:35:25.319Z,72.93
2022-08-27T02:37:52.925Z,45.72
2022-08-27T02:40:23.139Z,53.70
2022-08-27T02:42:50.872Z,25.27
2022-08-27T02:45:20.785Z,64.03
2022-08-27T02:47:48.607Z,48.08
2022-08-27T02:50:17.122Z,55.08
2022-08-27T02:52:45.386Z,26.77
2022-08-27T02:55:17.257Z,36.42
2022-08-27T02:57:45.611Z,29.05
2022-08-27T03:00:19.597Z,60.55
2022-08-27T03:02:48.357Z,54.58
2022-08-27T03:05:17.070Z,69.18
2022-08-27T03:07:49.524Z,55.00
2022-08-27T03:10:21.369Z,36.28
2022-08-27T03:12:49.213Z,69.07
2022-08-27T03:15:19.112Z,57.22
2022-08-27T03:18:06.154Z,63.90
2022-08-27T03:20:37.260Z,62.40
2022-08-27T03:23:04.697Z,69.45
2022-08-27T03:25:33.050Z,81.90
2022-08-27T03:28:01.902Z,76.88
2022-08-27T03:30:30.457Z,76.97
2022-08-27T03:32:57.525Z,66.13
2022-08-27T03:35:24.836Z,44.10
2022-08-27T03:37:51.987Z,55.15
2022-08-27T03:40:19.861Z,56.20
2022-08-27T03:42:47.179Z,76.45
2022-08-27T03:45:20.526Z,112.70
2022-08-27T03:47:51.438Z,69.10
2022-08-27T03:50:19.099Z,51.13
2022-08-27T03:52:46.612Z,36.47
2022-08-27T03:55:14.836Z,40.60
2022-08-27T03:57:41.936Z,47.97
2022-08-27T04:00:14.779Z,30.45
2022-08-27T04:02:44.080Z,66.70
2022-08-27T04:05:14.424Z,122.05
2022-08-27T04:07:44.327Z,72.30
2022-08-27T04:10:13.847Z,67.00
2022-08-27T04:12:41.709Z,49.65
2022-08-27T04:15:12.928Z,135.07
2022-08-27T04:17:41.358Z,162.25
2022-08-27T04:20:34.117Z,133.20
2022-08-27T04:23:44.467Z,248.00
2022-08-27T04:26:50.078Z,259.13
2022-08-27T04:29:17.769Z,298.60
2022-08-27T04:31:54.148Z,207.57
2022-08-27T04:34:25.327Z,234.57
2022-08-27T04:36:59.269Z,225.90
2022-08-27T04:39:31.220Z,187.98
2022-08-27T04:42:00.706Z,308.17
2022-08-27T04:44:32.552Z,175.70
2022-08-27T04:47:04.665Z,369.60
2022-08-27T04:49:36.772Z,201.75
2022-08-27T04:52:05.988Z,139.45
2022-08-27T04:54:34.425Z,53.10
2022-08-27T04:57:15.380Z,275.30
2022-08-27T04:59:43.327Z,298.05
2022-08-27T05:02:12.589Z,228.02
2022-08-27T05:04:40.848Z,84.88
2022-08-27T05:07:10.398Z,214.02
2022-08-27T05:09:38.745Z,260.08
2022-08-27T05:12:06.111Z,356.63
2022-08-27T05:14:36.899Z,71.03
2022-08-27T05:17:03.940Z,185.65
2022-08-27T05:19:31.407Z,100.90
2022-08-27T05:21:58.529Z,88.25
2022-08-27T05:24:25.684Z,287.23
2022-08-27T05:26:53.520Z,120.32
2022-08-27T05:29:20.693Z,95.70
2022-08-27T05:31:53.185Z,129.18
2022-08-27T05:34:26.199Z,233.38
2022-08-27T05:36:54.846Z,187.57
2022-08-27T05:39:22.257Z,208.90
2022-08-27T05:41:49.529Z,234.68
2022-08-27T05:44:40.190Z,163.93
2022-08-27T05:47:06.739Z,150.82
2022-08-27T05:49:33.750Z,237.52
2022-08-27T05:52:00.731Z,43.17
2022-08-27T05:54:28.455Z,112.78
2022-08-27T05:56:55.915Z,68.25
2022-08-27T05:59:45.506Z,84.13
2022-08-27T06:02:13.336Z,144.13
2022-08-27T06:04:40.602Z,158.95
2022-08-27T06:07:10.541Z,136.70
2022-08-27T06:09:39.564Z,52.03
2022-08-27T06:12:07.940Z,65.32
2022-08-27T06:14:37.955Z,132.38
2022-08-27T06:17:06.329Z,132.65
2022-08-27T06:19:36.253Z,90.47
2022-08-27T06:22:10.475Z,142.43
2022-08-27T06:24:41.836Z,122.45
2022-08-27T06:27:16.983Z,143.80
2022-08-27T06:29:45.060Z,130.63
2022-08-27T06:32:14.850Z,122.30
2022-08-27T06:34:45.164Z,170.65
2022-08-27T06:37:12.213Z,301.27
2022-08-27T06:39:39.764Z,157.52
2022-08-27T06:42:15.123Z,168.15
2022-08-27T06:44:42.324Z,112.07
2022-08-27T06:47:09.614Z,136.10
2022-08-27T06:49:40.946Z,44.80
2022-08-27T06:52:08.100Z,29.88
2022-08-27T06:54:37.612Z,68.10
2022-08-27T06:57:04.785Z,42.83
2022-08-27T06:59:31.865Z,37.60
2022-08-27T07:01:59.269Z,96.10
2022-08-27T07:04:32.033Z,87.32
2022-08-27T07:07:04.129Z,78.13
2022-08-27T07:09:34.044Z,54.92
2022-08-27T07:12:02.829Z,17.98
2022-08-27T07:14:35.658Z,36.78
2022-08-27T07:17:07.007Z,30.85
2022-08-27T07:19:41.262Z,31.27
2022-08-27T07:22:08.772Z,31.45
2022-08-27T07:24:36.351Z,29.52
2022-08-27T07:29:55.667Z,43.92
2022-08-27T07:32:22.702Z,44.25
2022-08-27T07:34:57.925Z,40.67
2022-08-27T07:37:27.664Z,71.97
2022-08-27T07:40:07.282Z,40.17
2022-08-27T07:42:53.090Z,38.85
2022-08-27T07:45:20.442Z,44.22
2022-08-27T07:47:52.331Z,34.17
2022-08-27T07:50:21.543Z,42.00
2022-08-27T07:52:57.282Z,31.88
2022-08-27T07:55:24.736Z,42.63
2022-08-27T07:57:52.705Z,43.20
2022-08-27T08:00:21.544Z,34.35
2022-08-27T08:02:51.696Z,27.38
2022-08-27T08:05:19.270Z,32.53
2022-08-27T08:07:46.528Z,21.48
2022-08-27T08:10:13.776Z,22.95
2022-08-27T08:12:41.433Z,12.63
2022-08-27T08:15:14.615Z,12.65
2022-08-27T08:17:42.361Z,13.27
2022-08-27T08:20:27.544Z,14.88
2022-08-27T08:22:59.200Z,15.60
2022-08-27T08:25:26.302Z,14.50
2022-08-27T08:27:53.587Z,12.07
2022-08-27T08:30:20.679Z,15.68
2022-08-27T08:32:48.032Z,10.45
2022-08-27T08:35:16.263Z,12.98
2022-08-27T08:37:45.046Z,11.20
2022-08-27T08:40:42.040Z,12.98
2022-08-27T08:43:42.413Z,13.18
2022-08-27T08:46:22.517Z,10.85
2022-08-27T08:49:00.199Z,11.82
2022-08-27T08:51:41.630Z,11.10
2022-08-27T08:54:19.812Z,9.05
2022-08-27T08:57:20.325Z,12.90
2022-08-27T09:00:01.656Z,12.13
2022-08-27T09:02:28.729Z,10.77
2022-08-27T09:04:57.901Z,11.65
2022-08-27T09:08:31.402Z,9.82
2022-08-27T09:11:21.163Z,12.02
2022-08-27T09:14:31.891Z,9.18
2022-08-27T09:17:01.593Z,8.40
2022-08-27T09:19:29.134Z,11.02
2022-08-27T09:22:21.794Z,8.90
2022-08-27T09:25:05.836Z,10.07
2022-08-27T09:27:37.963Z,8.05
2022-08-27T09:30:19.116Z,6.68
2022-08-27T09:32:56.311Z,7.65
2022-08-27T09:35:28.388Z,5.93
2022-08-27T09:37:57.859Z,6.18
2022-08-27T09:40:48.884Z,5.55
2022-08-27T09:43:34.189Z,8.32
2022-08-27T09:46:19.024Z,6.22
2022-08-27T09:48:46.087Z,7.50
2022-08-27T09:51:27.333Z,6.30
2022-08-27T09:54:02.107Z,8.55
2022-08-27T09:56:41.213Z,6.65
2022-08-27T09:59:31.754Z,8.52
2022-08-27T10:02:14.155Z,11.23
2022-08-27T10:04:51.326Z,8.95
2022-08-27T10:07:55.644Z,8.40
2022-08-27T10:11:14.399Z,6.90
2022-08-27T10:14:24.798Z,6.97
2022-08-27T10:17:19.988Z,5.97
2022-08-27T10:20:30.087Z,6.13
2022-08-27T10:23:17.393Z,6.20
2022-08-27T10:26:13.383Z,7.10
2022-08-27T10:29:19.880Z,5.80
2022-08-27T10:32:16.786Z,6.38
2022-08-27T10:35:12.279Z,5.78
2022-08-27T10:38:33.832Z,7.07
2022-08-27T10:41:28.603Z,5.85
2022-08-27T10:44:25.669Z,7.00
2022-08-27T10:47:20.005Z,9.30
2022-08-27T10:50:09.302Z,5.82
2022-08-27T10:53:05.391Z,6.05
2022-08-27T10:55:43.404Z,4.90
2022-08-27T10:58:40.836Z,6.35
2022-08-27T11:01:58.293Z,8.38
2022-08-27T11:04:35.105Z,6.32
2022-08-27T11:07:24.504Z,8.75
2022-08-27T11:10:04.924Z,6.93
2022-08-27T11:12:44.387Z,5.43
2022-08-27T11:15:36.561Z,8.40
2022-08-27T11:18:41.482Z,6.30
2022-08-27T11:21:51.514Z,5.97
2022-08-27T11:24:47.812Z,5.80
2022-08-27T11:27:23.121Z,6.80
2022-08-27T11:30:24.297Z,4.97
2022-08-27T11:33:35.294Z,5.80
2022-08-27T11:36:41.144Z,6.40
2022-08-27T11:40:05.916Z,6.20
2022-08-27T11:42:55.382Z,9.50
2022-08-27T11:45:38.826Z,5.30
2022-08-27T11:48:28.887Z,8.73
2022-08-27T11:51:09.011Z,5.57
2022-08-27T11:53:56.585Z,4.97
2022-08-27T11:56:37.360Z,5.40
2022-08-27T11:59:27.064Z,6.28
2022-08-27T12:02:10.498Z,7.93
2022-08-27T12:04:42.356Z,6.90
2022-08-27T12:07:18.043Z,5.13
2022-08-27T12:09:56.999Z,5.82
2022-08-27T12:13:09.633Z,6.03
2022-08-27T12:16:16.202Z,7.10
2022-08-27T12:19:54.441Z,6.47
2022-08-27T12:23:23.822Z,13.93
2022-08-27T12:26:35.348Z,11.18
2022-08-27T12:29:43.896Z,9.68
2022-08-27T12:32:35.934Z,8.70
2022-08-27T12:35:40.448Z,13.75
2022-08-27T12:38:31.956Z,8.30
2022-08-27T12:41:03.932Z,9.65
2022-08-27T12:43:35.497Z,7.85
2022-08-27T12:46:19.159Z,7.57
2022-08-27T12:48:54.075Z,9.70
2022-08-27T12:51:36.143Z,8.07
2022-08-27T12:55:03.396Z,7.28
2022-08-27T12:58:13.438Z,10.80
2022-08-27T13:01:25.025Z,8.05
2022-08-27T13:03:55.437Z,8.20
2022-08-27T13:06:35.570Z,5.88
2022-08-27T13:09:08.554Z,7.60
2022-08-27T13:11:48.748Z,7.38
2022-08-27T13:14:21.164Z,5.20
2022-08-27T13:17:00.418Z,8.98
2022-08-27T13:19:44.931Z,5.13
2022-08-27T13:22:20.631Z,7.03
2022-08-27T13:24:53.836Z,5.25
2022-08-27T13:27:32.621Z,8.85
2022-08-27T13:30:26.886Z,5.25
2022-08-27T13:33:01.196Z,4.60
2022-08-27T13:35:28.399Z,5.20
2022-08-27T13:37:57.627Z,7.28
2022-08-27T13:40:36.976Z,4.63
2022-08-27T13:43:13.631Z,5.50
2022-08-27T13:45:41.768Z,5.25
2022-08-27T13:48:11.627Z,4.28
2022-08-27T13:50:49.580Z,3.95
2022-08-27T13:53:51.082Z,5.05
2022-08-27T13:56:38.800Z,5.53
2022-08-27T13:59:12.858Z,6.32
2022-08-27T14:02:04.590Z,6.53
2022-08-27T14:04:49.602Z,10.93
2022-08-27T14:07:30.932Z,6.10
2022-08-27T14:10:31.494Z,7.50
2022-08-27T14:13:31.488Z,7.28
2022-08-27T14:16:00.346Z,7.15
2022-08-27T14:18:55.465Z,8.27
2022-08-27T14:21:20.886Z,5.28
2022-08-27T14:23:48.775Z,6.72
2022-08-27T14:26:17.657Z,6.95
2022-08-27T14:28:46.183Z,7.30
2022-08-27T14:31:15.707Z,12.00
2022-08-27T14:33:43.001Z,7.65
2022-08-27T14:36:11.016Z,8.93
2022-08-27T14:38:43.232Z,9.13
2022-08-27T14:41:10.776Z,7.10
2022-08-27T14:43:38.353Z,8.43
2022-08-27T14:46:11.789Z,8.95
2022-08-27T14:48:43.303Z,7.63
2022-08-27T14:51:29.858Z,10.18
2022-08-27T14:53:57.927Z,7.85
2022-08-27T14:56:27.044Z,5.28
2022-08-27T14:58:54.241Z,9.73
2022-08-27T15:01:26.308Z,7.90
2022-08-27T15:03:54.857Z,12.30
2022-08-27T15:06:23.730Z,8.70
2022-08-27T15:08:51.800Z,8.57
2022-08-27T15:11:29.086Z,8.60
2022-08-27T15:13:58.425Z,7.45
2022-08-27T15:16:39.990Z,7.25
2022-08-27T15:19:11.027Z,9.20
2022-08-27T15:21:41.132Z,7.30
2022-08-27T15:24:28.449Z,8.05
2022-08-27T15:26:59.800Z,9.50
2022-08-27T15:29:27.431Z,7.85
2022-08-27T15:31:54.606Z,6.43
2022-08-27T15:34:22.017Z,8.23
2022-08-27T15:36:49.334Z,10.55
2022-08-27T15:39:16.735Z,7.45
2022-08-27T15:42:03.378Z,7.88
2022-08-27T15:44:31.350Z,7.88
2022-08-27T15:46:58.359Z,7.28
2022-08-27T15:49:25.399Z,8.85
2022-08-27T15:51:52.517Z,7.50
2022-08-27T15:54:20.058Z,11.68
2022-08-27T15:56:47.078Z,8.73
2022-08-27T15:59:14.147Z,12.45
2022-08-27T16:01:41.687Z,8.00
2022-08-27T16:04:10.176Z,8.95
2022-08-27T16:06:38.624Z,8.10
2022-08-27T16:09:06.788Z,11.57
2022-08-27T16:11:33.996Z,13.40
2022-08-27T16:14:01.412Z,10.05
2022-08-27T16:16:32.350Z,8.15
2022-08-27T16:19:02.841Z,10.65
2022-08-27T16:21:30.711Z,9.18
2022-08-27T16:23:57.714Z,8.75
2022-08-27T16:26:24.738Z,8.02
2022-08-27T16:28:51.732Z,7.40
2022-08-27T16:31:19.007Z,7.63
2022-08-27T16:33:46.858Z,6.82
2022-08-27T16:36:14.347Z,5.93
2022-08-27T16:38:41.640Z,7.53
2022-08-27T16:41:08.848Z,5.68
2022-08-27T16:43:35.969Z,6.70
2022-08-27T16:46:03.522Z,5.90
2022-08-27T16:48:54.859Z,6.93
2022-08-27T16:51:34.980Z,6.30
2022-08-27T16:54:06.911Z,5.70
2022-08-27T16:56:37.726Z,8.45
2022-08-27T16:59:06.239Z,9.57
2022-08-27T17:01:33.744Z,6.07
2022-08-27T17:04:11.029Z,7.20
2022-08-27T17:06:42.225Z,9.82
2022-08-27T17:09:10.293Z,7.32
2022-08-27T17:11:42.661Z,9.25
2022-08-27T17:14:12.046Z,5.88
2022-08-27T17:16:43.376Z,6.78
2022-08-27T17:19:16.897Z,6.80
2022-08-27T17:21:45.413Z,7.63
2022-08-27T17:24:13.474Z,10.05
2022-08-27T17:26:40.966Z,9.48
2022-08-27T17:29:07.974Z,12.68
2022-08-27T17:31:40.423Z,8.15
2022-08-27T17:34:17.786Z,7.72
2022-08-27T17:36:46.148Z,6.53
2022-08-27T17:39:14.280Z,10.85
2022-08-27T17:41:49.501Z,7.35
2022-08-27T17:44:34.931Z,8.88
2022-08-27T17:47:07.527Z,6.85
2022-08-27T17:49:35.476Z,7.10
2022-08-27T17:52:12.965Z,5.95
2022-08-27T17:54:47.947Z,9.60
2022-08-27T17:57:40.471Z,10.10
2022-08-27T18:00:12.797Z,11.40
2022-08-27T18:02:48.918Z,11.30
2022-08-27T18:05:20.823Z,7.45
2022-08-27T18:07:48.905Z,7.05
2022-08-27T18:10:23.667Z,10.18
2022-08-27T18:12:55.206Z,9.13
2022-08-27T18:15:37.494Z,6.38
2022-08-27T18:18:05.513Z,9.93
2022-08-27T18:20:34.346Z,7.13
2022-08-27T18:23:03.692Z,6.43
2022-08-27T18:25:36.100Z,6.72
2022-08-27T18:28:11.646Z,9.95
2022-08-27T18:30:41.554Z,9.20
2022-08-27T18:33:09.389Z,7.13
2022-08-27T18:35:38.523Z,5.40
2022-08-27T18:38:06.566Z,7.32
2022-08-27T18:40:46.812Z,5.68
2022-08-27T18:43:15.679Z,6.80
2022-08-27T18:45:43.252Z,6.93
2022-08-27T18:48:21.592Z,9.57
2022-08-27T18:51:00.210Z,10.77
2022-08-27T18:53:33.905Z,7.47
2022-08-27T18:56:02.859Z,10.18
2022-08-27T18:58:29.886Z,6.25
2022-08-27T19:01:01.949Z,5.90
2022-08-27T19:03:41.924Z,7.70
2022-08-27T19:06:09.959Z,5.63
2022-08-27T19:08:40.424Z,5.93
2022-08-27T19:11:07.900Z,5.03
2022-08-27T19:13:35.250Z,3.17
2022-08-27T19:16:15.719Z,3.47
2022-08-27T19:18:43.503Z,5.13
2022-08-27T19:21:11.437Z,4.22
2022-08-27T19:23:38.765Z,3.38
2022-08-27T19:26:13.472Z,5.32
2022-08-27T19:28:45.091Z,5.97
2022-08-27T19:31:15.485Z,4.80
2022-08-27T19:33:44.348Z,5.68
2022-08-27T19:36:16.048Z,7.60
2022-08-27T19:38:44.093Z,6.00
2022-08-27T19:41:11.759Z,3.70
2022-08-27T19:43:39.048Z,2.95
2022-08-27T19:46:13.059Z,2.55
2022-08-27T19:48:40.129Z,3.50
2022-08-27T19:51:07.256Z,3.65
2022-08-27T19:53:35.432Z,2.72
2022-08-27T19:56:03.326Z,3.30
2022-08-27T19:58:31.210Z,3.63
2022-08-27T20:00:58.197Z,3.38
2022-08-27T20:03:26.414Z,7.22
2022-08-27T20:05:53.606Z,4.65
2022-08-27T20:08:20.963Z,5.35
2022-08-27T20:10:49.355Z,4.75
2022-08-27T20:13:16.381Z,5.18
2022-08-27T20:15:43.832Z,5.47
2022-08-27T20:18:16.350Z,5.10
2022-08-27T20:20:43.382Z,12.20
2022-08-27T20:23:12.142Z,4.50
2022-08-27T20:25:40.406Z,5.47
2022-08-27T20:28:34.989Z,5.47
2022-08-27T20:30:57.345Z,5.90
2022-08-27T20:33:26.380Z,5.25
2022-08-27T20:35:56.605Z,7.18
2022-08-27T20:38:23.762Z,5.93
2022-08-27T20:40:51.138Z,6.70
2022-08-27T20:43:18.776Z,4.30
2022-08-27T20:45:46.116Z,11.10
2022-08-27T20:48:14.771Z,8.10
2022-08-27T20:50:41.823Z,8.52
2022-08-27T20:53:09.081Z,7.50
2022-08-27T20:55:36.048Z,11.80
2022-08-27T20:58:21.658Z,7.95
2022-08-27T21:00:53.435Z,9.45
2022-08-27T21:03:21.152Z,10.73
2022-08-27T21:05:48.496Z,6.82
2022-08-27T21:08:21.682Z,7.30
2022-08-27T21:10:55.008Z,10.38
2022-08-27T21:13:22.622Z,9.98
2022-08-27T21:15:56.398Z,8.27
2022-08-27T21:18:29.814Z,7.07
2022-08-27T21:20:59.890Z,8.43
2022-08-27T21:23:28.959Z,11.48
2022-08-27T21:26:05.852Z,8.32
2022-08-27T21:28:33.627Z,11.02
2022-08-27T21:31:00.617Z,8.43
2022-08-27T21:33:27.847Z,8.38
2022-08-27T21:35:55.167Z,10.30
2022-08-27T21:38:22.308Z,11.43
2022-08-27T21:40:49.370Z,10.18
2022-08-27T21:43:16.372Z,8.30
2022-08-27T21:45:43.913Z,8.05
2022-08-27T21:48:11.855Z,10.40
2022-08-27T21:50:39.110Z,10.18
2022-08-27T21:53:06.361Z,9.85
2022-08-27T21:55:33.630Z,10.93
2022-08-27T21:58:00.627Z,9.02
2022-08-27T22:00:28.344Z,12.52
2022-08-27T22:02:56.755Z,11.05
2022-08-27T22:05:24.554Z,11.73
2022-08-27T22:07:51.613Z,10.00
2022-08-27T22:10:18.748Z,13.40
2022-08-27T22:12:45.747Z,9.63
2022-08-27T22:15:13.552Z,10.85
2022-08-27T22:17:40.513Z,12.32
2022-08-27T22:20:09.507Z,11.35
2022-08-27T22:22:36.680Z,13.63
2022-08-27T22:25:05.992Z,12.52
2022-08-27T22:27:33.021Z,10.73
2022-08-27T22:30:00.350Z,9.82
2022-08-27T22:32:27.642Z,9.77
2022-08-27T22:34:56.749Z,13.07
2022-08-27T22:37:23.782Z,12.98
2022-08-27T22:39:51.159Z,11.25
2022-08-27T22:42:19.380Z,13.13
2022-08-27T22:44:47.360Z,11.02
2022-08-27T22:47:15.029Z,9.27
2022-08-27T22:49:43.539Z,11.68
2022-08-27T22:52:11.371Z,13.25
2022-08-27T22:54:38.736Z,13.02
2022-08-27T22:57:05.992Z,10.38
2022-08-27T22:59:39.222Z,8.65
2022-08-27T23:02:09.505Z,14.02
2022-08-27T23:04:54.429Z,12.50
2022-08-27T23:07:22.468Z,12.23
2022-08-27T23:09:49.485Z,10.95
2022-08-27T23:12:16.515Z,10.40
2022-08-27T23:14:43.506Z,10.65
2022-08-27T23:17:10.509Z,9.68
2022-08-27T23:19:37.541Z,12.70
2022-08-27T23:22:07.171Z,12.00
2022-08-27T23:24:55.633Z,11.70
2022-08-27T23:27:31.366Z,14.98
2022-08-27T23:30:02.512Z,12.15
2022-08-27T23:32:30.415Z,15.70
2022-08-27T23:34:58.014Z,13.57
2022-08-27T23:37:25.133Z,14.73
2022-08-27T23:39:52.239Z,12.30
2022-08-27T23:42:19.752Z,10.60
2022-08-27T23:44:48.754Z,14.10
2022-08-27T23:47:16.817Z,12.98
2022-08-27T23:49:43.980Z,10.48
2022-08-27T23:52:12.920Z,12.50
2022-08-27T23:54:40.509Z,12.73
2022-08-27T23:57:07.795Z,13.02
2022-08-27T23:59:35.178Z,13.27
